Details From DTTX - THYNA
To DABS - CHEIKH LARBI TEBESSI
Flight Number -
Tags generated
Created
Modified
Stats Distance 137 nm / 254 km
Max Altitude 12,200 ft / 3,719 m
Waypoints 3
Social Downloads 0
Likes 0
Share VATSIM

Download

Looking for another format? Having issues loading an existing format? Contact us
Advertisement - Login to hide

Notes

Basic altitude profile: - Ascent Rate: 2500ft/min - Ascent Speed: 250kts - Cruise Altitude: 18000ft - Cruise Speed: 300kts - Descent Rate: 1500ft/min - Descent Speed: 225kts Options: - Use NATs: yes - Use PACOTS: yes - Use low airways: yes - Use high airways: yes

Route

DTTX BAN DABS

ID Type Via Altitude Latitude Longitude Leg Dist Tot Dist Heading (true) Name
O DTTX APT - 0 ft / 0 m 34.71756˚ 10.69083˚ - 0 nm - THYNA
BAN VOR - 12,200 ft / 3,719 m 34.86333˚ 9.16778˚ 75 nm 75 nm 277° / 276° SIDI BEN AOUN VOR
O DABS APT - 0 ft / 0 m 35.43161˚ 8.12072˚ 61 nm 137 nm 304° / 303° CHEIKH LARBI TEBESSI

Altitude Profile

Advertisement - Login to hide

DTTX

Details ICAO DTTX (SFA)
Name THYNA
Region Tunisia
Timezone Africa/Tunis (UTC+1.0)
Stats Elevation 85 ft / 26 m (AMSL)
Location 34.717558° 10.690831°
Runways 1
Magnetic Variation 2.405° E

METAR

DTTX 262100Z 11004KT 9999 FEW030 21/17 Q1018 NOSIG

Decode

TAF

TAF DTTX 261100Z 2618/2718 10010KT 9999 FEW030

Decode

Departure Runways

ID Width Length Bearing (true) Bearing (mag) Surface Threshold Offset Overrun Length
15 148 ft / 45 m 9,874 ft / 3,010 m 148.10° 145.69° Concrete 0 ft / 0 m 197 ft / 60 m
33 148 ft / 45 m 9,874 ft / 3,010 m 328.11° 325.70° Concrete 0 ft / 0 m 197 ft / 60 m

DABS

Details ICAO DABS (TEE)
Name CHEIKH LARBI TEBESSI
Region Algeria
Timezone Africa/Algiers (UTC+1.0)
Stats Elevation 2,661 ft / 811 m (AMSL)
Location 35.431610° 8.120716°
Runways 2
Magnetic Variation 2.010° E

METAR

DABS 262100Z 14008KT 9999 FEW040 BKN230 27/06 Q1020

Decode

TAF

TAF DABS 261700Z 2618/2718 18014KT 8000 FEW033 BKN200 PROB30 TEMPO 2618/2624 FEW026CB BECMG 2700/2702 06006KT BECMG 2709/2712 20014KT TEMPO 2712/2718 FEW026CB

Decode

Destination Runways

ID Width Length Bearing (true) Bearing (mag) Surface Threshold Offset Overrun Length
11 148 ft / 45 m 9,850 ft / 3,002 m 112.75° 110.74° Asphalt 0 ft / 0 m 345 ft / 105 m
12 98 ft / 30 m 7,867 ft / 2,398 m 121.86° 119.85° Asphalt 0 ft / 0 m 0 ft / 0 m
29 148 ft / 45 m 9,850 ft / 3,002 m 292.76° 290.75° Asphalt 0 ft / 0 m 345 ft / 105 m
30 98 ft / 30 m 7,867 ft / 2,398 m 301.88° 299.87° Asphalt 0 ft / 0 m 0 ft / 0 m